Time,TemperatureF,DewpointF,PressureIn,WindDirection,WindDirectionDegrees,WindSpeedMPH,WindSpeedGustMPH,Humidity,HourlyPrecipIn,Conditions,Clouds,dailyrainin,SoftwareType,DateUTC
2013-04-20 00:07:00,49.4,38.0,29.91,NW,309,0.0,7.0,66,0.00,,,0.00,weatherlink.com 1.10,2013-04-20 04:07:00,
2013-04-20 00:22:00,49.3,38.0,29.92,NNE,32,1.0,8.0,65,0.00,,,0.00,weatherlink.com 1.10,2013-04-20 04:22:00,
2013-04-20 00:37:00,48.9,37.0,29.93,WSW,253,4.0,8.0,63,0.00,,,0.00,weatherlink.com 1.10,2013-04-20 04:37:00,
2013-04-20 00:52:00,48.7,37.0,29.93,SW,224,2.0,5.0,64,0.00,,,0.00,weatherlink.com 1.10,2013-04-20 04:52:00,
2013-04-20 01:07:00,48.4,36.0,29.94,NW,309,3.0,6.0,62,0.00,,,0.00,weatherlink.com 1.10,2013-04-20 05:07:00,
2013-04-20 01:22:00,48.0,35.0,29.94,NE,43,3.0,9.0,60,0.00,,,0.00,weatherlink.com 1.10,2013-04-20 05:22:00,
2013-04-20 01:37:00,47.6,33.0,29.95,NNW,331,0.0,5.0,57,0.00,,,0.00,weatherlink.com 1.10,2013-04-20 05:37:00,
2013-04-20 01:52:00,46.6,34.0,29.95,NW,313,0.0,2.0,61,0.00,,,0.00,weatherlink.com 1.10,2013-04-20 05:52:00,
2013-04-20 02:07:00,46.4,33.0,29.95,NE,42,3.0,8.0,60,0.00,,,0.00,weatherlink.com 1.10,2013-04-20 06:07:00,
2013-04-20 02:22:00,46.2,33.0,29.95,NW,316,0.0,8.0,60,0.00,,,0.00,weatherlink.com 1.10,2013-04-20 06:22:00,
2013-04-20 02:37:00,46.0,33.0,29.95,West,280,1.0,7.0,60,0.00,,,0.00,weatherlink.com 1.10,2013-04-20 06:37:00,
2013-04-20 02:52:00,45.4,33.0,29.95,NNW,335,0.0,4.0,62,0.00,,,0.00,weatherlink.com 1.10,2013-04-20 06:52:00,
2013-04-20 03:07:00,44.7,33.0,29.95,NNE,24,0.0,3.0,64,0.00,,,0.00,weatherlink.com 1.10,2013-04-20 07:07:00,
2013-04-20 03:22:00,44.5,33.0,29.95,NNW,343,1.0,2.0,64,0.00,,,0.00,weatherlink.com 1.10,2013-04-20 07:22:00,
2013-04-20 03:37:00,44.6,32.0,29.96,SW,218,3.0,6.0,62,0.00,,,0.00,weatherlink.com 1.10,2013-04-20 07:37:00,
2013-04-20 03:52:00,44.8,31.0,29.98,NW,308,5.0,11.0,59,0.00,,,0.00,weatherlink.com 1.10,2013-04-20 07:52:00,
2013-04-20 04:07:00,44.3,31.0,29.98,North,349,4.0,5.0,60,0.00,,,0.00,weatherlink.com 1.10,2013-04-20 08:07:00,
2013-04-20 04:22:00,44.2,30.0,30.00,NNE,12,6.0,9.0,58,0.00,,,0.00,weatherlink.com 1.10,2013-04-20 08:22:00,
2013-04-20 04:37:00,43.7,29.0,30.00,North,11,1.0,3.0,57,0.00,,,0.00,weatherlink.com 1.10,2013-04-20 08:37:00,
2013-04-20 04:52:00,43.0,29.0,30.00,North,350,0.0,3.0,58,0.00,,,0.00,weatherlink.com 1.10,2013-04-20 08:52:00,
2013-04-20 05:08:00,42.3,30.0,30.01,East,96,1.0,2.0,61,0.00,,,0.00,weatherlink.com 1.10,2013-04-20 09:08:00,
2013-04-20 05:23:00,41.1,33.0,30.02,ENE,67,1.0,3.0,74,0.00,,,0.00,weatherlink.com 1.10,2013-04-20 09:23:00,
2013-04-20 05:38:00,39.5,31.0,30.03,ENE,67,0.0,0.0,71,0.00,,,0.00,weatherlink.com 1.10,2013-04-20 09:38:00,
2013-04-20 05:53:00,39.0,32.0,30.04,NNW,330,0.0,1.0,77,0.00,,,0.00,weatherlink.com 1.10,2013-04-20 09:53:00,
2013-04-20 06:08:00,39.0,30.0,30.05,NNE,13,0.0,1.0,69,0.00,,,0.00,weatherlink.com 1.10,2013-04-20 10:08:00,
2013-04-20 06:23:00,39.8,29.0,30.05,NNW,347,1.0,4.0,65,0.00,,,0.00,weatherlink.com 1.10,2013-04-20 10:23:00,
2013-04-20 06:38:00,40.1,27.0,30.06,NNW,341,2.0,8.0,61,0.00,,,0.00,weatherlink.com 1.10,2013-04-20 10:38:00,
2013-04-20 06:53:00,40.5,27.0,30.07,East,82,1.0,7.0,59,0.00,,,0.00,weatherlink.com 1.10,2013-04-20 10:53:00,
2013-04-20 07:08:00,40.8,26.0,30.07,NNW,338,5.0,6.0,57,0.00,,,0.00,weatherlink.com 1.10,2013-04-20 11:08:00,
2013-04-20 07:23:00,40.8,26.0,30.08,WNW,295,1.0,5.0,56,0.00,,,0.00,weatherlink.com 1.10,2013-04-20 11:23:00,
2013-04-20 07:38:00,40.9,26.0,30.09,NW,312,5.0,5.0,55,0.00,,,0.00,weatherlink.com 1.10,2013-04-20 11:38:00,
2013-04-20 07:53:00,41.5,26.0,30.10,NW,316,2.0,6.0,55,0.00,,,0.00,weatherlink.com 1.10,2013-04-20 11:53:00,
2013-04-20 08:08:00,41.8,27.0,30.11,NW,309,1.0,7.0,56,0.00,,,0.00,weatherlink.com 1.10,2013-04-20 12:08:00,
2013-04-20 08:23:00,42.5,28.0,30.12,WNW,290,5.0,6.0,56,0.00,,,0.00,weatherlink.com 1.10,2013-04-20 12:23:00,
2013-04-20 08:38:00,43.3,27.0,30.13,NNE,12,3.0,5.0,54,0.00,,,0.00,weatherlink.com 1.10,2013-04-20 12:38:00,
2013-04-20 08:53:00,44.2,27.0,30.13,NNE,32,0.0,6.0,52,0.00,,,0.00,weatherlink.com 1.10,2013-04-20 12:53:00,
2013-04-20 09:08:00,45.1,29.0,30.14,ENE,67,1.0,9.0,53,0.00,,,0.00,weatherlink.com 1.10,2013-04-20 13:08:00,
2013-04-20 09:23:00,46.4,30.0,30.15,NE,37,5.0,7.0,53,0.00,,,0.00,weatherlink.com 1.10,2013-04-20 13:23:00,
2013-04-20 09:38:00,46.9,27.0,30.15,North,353,2.0,10.0,47,0.00,,,0.00,weatherlink.com 1.10,2013-04-20 13:38:00,
2013-04-20 09:53:00,48.3,30.0,30.16,NW,320,1.0,7.0,49,0.00,,,0.00,weatherlink.com 1.10,2013-04-20 13:53:00,
2013-04-20 10:08:00,48.5,29.0,30.16,NNE,22,3.0,9.0,47,0.00,,,0.00,weatherlink.com 1.10,2013-04-20 14:08:00,
2013-04-20 10:23:00,49.1,28.0,30.16,WNW,293,3.0,9.0,45,0.00,,,0.00,weatherlink.com 1.10,2013-04-20 14:23:00,
2013-04-20 10:38:00,49.6,28.0,30.16,North,351,4.0,7.0,44,0.00,,,0.00,weatherlink.com 1.10,2013-04-20 14:38:00,
2013-04-20 10:53:00,50.5,30.0,30.17,WNW,287,3.0,9.0,45,0.00,,,0.00,weatherlink.com 1.10,2013-04-20 14:53:00,
2013-04-20 11:09:00,51.0,29.0,30.17,WNW,302,2.0,6.0,43,0.00,,,0.00,weatherlink.com 1.10,2013-04-20 15:09:00,
2013-04-20 11:24:00,51.3,27.0,30.17,NW,314,1.0,8.0,39,0.00,,,0.00,weatherlink.com 1.10,2013-04-20 15:24:00,
2013-04-20 11:39:00,51.7,28.0,30.17,WNW,294,0.0,7.0,40,0.00,,,0.00,weatherlink.com 1.10,2013-04-20 15:39:00,
2013-04-20 11:54:00,53.1,30.0,30.17,SW,228,1.0,7.0,41,0.00,,,0.00,weatherlink.com 1.10,2013-04-20 15:54:00,
2013-04-20 12:09:00,53.7,31.0,30.17,NNW,333,6.0,11.0,42,0.00,,,0.00,weatherlink.com 1.10,2013-04-20 16:09:00,
2013-04-20 12:24:00,54.4,30.0,30.17,NW,323,2.0,7.0,40,0.00,,,0.00,weatherlink.com 1.10,2013-04-20 16:24:00,
2013-04-20 12:39:00,54.9,34.0,30.16,WNW,297,3.0,7.0,45,0.00,,,0.00,weatherlink.com 1.10,2013-04-20 16:39:00,
2013-04-20 12:54:00,55.5,29.0,30.16,ENE,63,3.0,8.0,37,0.00,,,0.00,weatherlink.com 1.10,2013-04-20 16:54:00,
2013-04-20 13:09:00,56.9,34.0,30.15,WNW,285,3.0,6.0,43,0.00,,,0.00,weatherlink.com 1.10,2013-04-20 17:09:00,
2013-04-20 13:24:00,57.1,31.0,30.15,WNW,288,1.0,6.0,37,0.00,,,0.00,weatherlink.com 1.10,2013-04-20 17:24:00,
2013-04-20 13:39:00,57.5,32.0,30.15,NNE,30,2.0,5.0,38,0.00,,,0.00,weatherlink.com 1.10,2013-04-20 17:39:00,
2013-04-20 13:54:00,58.0,33.0,30.15,NW,308,1.0,10.0,39,0.00,,,0.00,weatherlink.com 1.10,2013-04-20 17:54:00,
2013-04-20 14:09:00,58.7,29.0,30.15,ESE,122,1.0,6.0,33,0.00,,,0.00,weatherlink.com 1.10,2013-04-20 18:09:00,
2013-04-20 14:24:00,59.1,36.0,30.15,NE,47,2.0,7.0,42,0.00,,,0.00,weatherlink.com 1.10,2013-04-20 18:24:00,
2013-04-20 14:39:00,59.7,32.0,30.15,WNW,285,3.0,9.0,35,0.00,,,0.00,weatherlink.com 1.10,2013-04-20 18:39:00,
2013-04-20 14:54:00,60.3,30.0,30.15,SSW,197,1.0,4.0,32,0.00,,,0.00,weatherlink.com 1.10,2013-04-20 18:54:00,
2013-04-20 15:09:00,60.5,32.0,30.15,WNW,291,2.0,6.0,34,0.00,,,0.00,weatherlink.com 1.10,2013-04-20 19:09:00,
2013-04-20 15:24:00,60.4,31.0,30.15,West,271,2.0,9.0,33,0.00,,,0.00,weatherlink.com 1.10,2013-04-20 19:24:00,
2013-04-20 15:39:00,61.3,33.0,30.14,WNW,285,2.0,5.0,34,0.00,,,0.00,weatherlink.com 1.10,2013-04-20 19:39:00,
2013-04-20 15:54:00,61.2,30.0,30.14,NNW,330,3.0,7.0,31,0.00,,,0.00,weatherlink.com 1.10,2013-04-20 19:54:00,
2013-04-20 16:09:00,61.5,30.0,30.14,NNE,12,2.0,6.0,31,0.00,,,0.00,weatherlink.com 1.10,2013-04-20 20:09:00,
2013-04-20 16:24:00,61.6,33.0,30.14,North,359,4.0,6.0,34,0.00,,,0.00,weatherlink.com 1.10,2013-04-20 20:24:00,
2013-04-20 16:39:00,61.4,32.0,30.14,NW,320,2.0,5.0,33,0.00,,,0.00,weatherlink.com 1.10,2013-04-20 20:39:00,
2013-04-20 16:54:00,62.0,32.0,30.15,West,278,2.0,6.0,32,0.00,,,0.00,weatherlink.com 1.10,2013-04-20 20:54:00,
2013-04-20 17:09:00,62.2,30.0,30.15,NNW,332,0.0,7.0,30,0.00,,,0.00,weatherlink.com 1.10,2013-04-20 21:09:00,
2013-04-20 17:24:00,61.9,30.0,30.16,WNW,283,1.0,10.0,30,0.00,,,0.00,weatherlink.com 1.10,2013-04-20 21:24:00,
2013-04-20 17:39:00,61.7,31.0,30.16,NNE,13,2.0,6.0,32,0.00,,,0.00,weatherlink.com 1.10,2013-04-20 21:39:00,
2013-04-20 17:54:00,61.9,35.0,30.17,WNW,293,4.0,6.0,37,0.00,,,0.00,weatherlink.com 1.10,2013-04-20 21:54:00,
2013-04-20 18:09:00,61.5,33.0,30.17,WNW,290,1.0,9.0,34,0.00,,,0.00,weatherlink.com 1.10,2013-04-20 22:09:00,
2013-04-20 18:24:00,61.6,33.0,30.18,North,4,1.0,3.0,34,0.00,,,0.00,weatherlink.com 1.10,2013-04-20 22:24:00,
2013-04-20 18:39:00,60.9,34.0,30.18,NNW,341,0.0,4.0,36,0.00,,,0.00,weatherlink.com 1.10,2013-04-20 22:39:00,
2013-04-20 18:54:00,60.3,30.0,30.18,North,359,2.0,5.0,32,0.00,,,0.00,weatherlink.com 1.10,2013-04-20 22:54:00,
2013-04-20 19:09:00,58.5,31.0,30.19,North,1,2.0,3.0,35,0.00,,,0.00,weatherlink.com 1.10,2013-04-20 23:09:00,
2013-04-20 19:24:00,57.0,31.0,30.20,NW,325,1.0,2.0,37,0.00,,,0.00,weatherlink.com 1.10,2013-04-20 23:24:00,
2013-04-20 19:39:00,55.9,30.0,30.20,NNW,328,0.0,6.0,38,0.00,,,0.00,weatherlink.com 1.10,2013-04-20 23:39:00,
2013-04-20 19:54:00,54.7,31.0,30.21,North,352,0.0,2.0,40,0.00,,,0.00,weatherlink.com 1.10,2013-04-20 23:54:00,
2013-04-20 20:09:00,53.2,36.0,30.22,North,353,0.0,0.0,52,0.00,,,0.00,weatherlink.com 1.10,2013-04-21 00:09:00,
2013-04-20 20:25:00,51.1,33.0,30.23,North,353,0.0,1.0,50,0.00,,,0.00,weatherlink.com 1.10,2013-04-21 00:25:00,
2013-04-20 20:40:00,49.9,38.0,30.24,North,353,0.0,0.0,65,0.00,,,0.00,weatherlink.com 1.10,2013-04-21 00:40:00,
2013-04-20 20:55:00,48.6,36.0,30.25,North,352,0.0,0.0,63,0.00,,,0.00,weatherlink.com 1.10,2013-04-21 00:55:00,
2013-04-20 21:10:00,49.4,34.0,30.26,North,352,0.0,1.0,56,0.00,,,0.00,weatherlink.com 1.10,2013-04-21 01:10:00,
2013-04-20 21:25:00,49.0,36.0,30.27,North,352,0.0,1.0,62,0.00,,,0.00,weatherlink.com 1.10,2013-04-21 01:25:00,
2013-04-20 21:40:00,48.5,34.0,30.28,North,352,1.0,1.0,58,0.00,,,0.00,weatherlink.com 1.10,2013-04-21 01:40:00,
2013-04-20 21:55:00,47.7,35.0,30.29,North,352,0.0,1.0,61,0.00,,,0.00,weatherlink.com 1.10,2013-04-21 01:55:00,
2013-04-20 22:10:00,47.3,32.0,30.30,North,353,0.0,0.0,56,0.00,,,0.00,weatherlink.com 1.10,2013-04-21 02:10:00,
2013-04-20 22:25:00,47.0,34.0,30.29,North,353,0.0,0.0,62,0.00,,,0.00,weatherlink.com 1.10,2013-04-21 02:25:00,
2013-04-20 22:40:00,46.1,36.0,30.30,NNE,18,0.0,1.0,69,0.00,,,0.00,weatherlink.com 1.10,2013-04-21 02:40:00,
2013-04-20 22:55:00,45.7,31.0,30.30,NNE,19,0.0,1.0,58,0.00,,,0.00,weatherlink.com 1.10,2013-04-21 02:55:00,
2013-04-20 23:10:00,46.5,31.0,30.29,North,350,1.0,2.0,55,0.00,,,0.00,weatherlink.com 1.10,2013-04-21 03:10:00,
2013-04-20 23:25:00,46.4,31.0,30.30,North,360,1.0,2.0,55,0.00,,,0.00,weatherlink.com 1.10,2013-04-21 03:25:00,
2013-04-20 23:40:00,45.9,34.0,30.30,North,349,0.0,1.0,64,0.00,,,0.00,weatherlink.com 1.10,2013-04-21 03:40:00,
2013-04-20 23:55:00,43.8,34.0,30.31,North,349,0.0,1.0,68,0.00,,,0.00,weatherlink.com 1.10,2013-04-21 03:55:00,